Time;durP1;ratioP1;P1;durP2;ratioP2;P2;SDS_P1;SDS_P2;PMS_P1;PMS_P2;Temp;Humidity;BMP_temperature;BMP_pressure;BME280_temperature;BME280_humidity;BME280_pressure;Samples;Min_cycle;Max_cycle;Signal;HPM_P1;HPM_P2
2021/03/15 00:01:10;;;;;;;4.28;2.42;;;5.20;95.50;;;;;;5020951;28;20414;-78
2021/03/15 00:03:39;;;;;;;8.18;2.53;;;5.20;95.40;;;;;;5032639;28;20037;-77
2021/03/15 00:06:05;;;;;;;10.52;3.47;;;5.20;95.40;;;;;;5025691;28;20029;-77
2021/03/15 00:08:31;;;;;;;9.98;4.15;;;5.20;95.50;;;;;;5068776;28;20039;-78
2021/03/15 00:10:56;;;;;;;7.05;3.33;;;5.20;95.60;;;;;;5049706;28;20120;-77
2021/03/15 00:13:22;;;;;;;2.75;1.88;;;5.20;95.50;;;;;;5018713;28;20041;-77
2021/03/15 00:15:48;;;;;;;5.60;2.15;;;5.30;95.50;;;;;;5007055;28;20477;-77
2021/03/15 00:18:14;;;;;;;4.72;2.88;;;5.30;95.60;;;;;;5049519;28;20536;-77
2021/03/15 00:20:39;;;;;;;7.25;3.40;;;5.30;95.50;;;;;;5035227;28;20116;-77
2021/03/15 00:23:05;;;;;;;9.77;2.80;;;5.30;95.70;;;;;;5016595;28;20512;-77
2021/03/15 00:25:31;;;;;;;9.82;3.08;;;5.30;95.70;;;;;;5038084;28;20059;-77
2021/03/15 00:27:56;;;;;;;4.78;2.58;;;5.30;95.80;;;;;;5008632;28;20112;-77
2021/03/15 00:30:22;;;;;;;9.80;3.03;;;5.30;95.70;;;;;;5034128;28;20045;-77
2021/03/15 00:32:48;;;;;;;6.70;2.90;;;5.30;95.60;;;;;;5024796;28;20053;-77
2021/03/15 00:35:14;;;;;;;6.63;2.88;;;5.30;95.70;;;;;;5022759;28;20029;-77
2021/03/15 00:37:40;;;;;;;11.95;4.15;;;5.30;95.80;;;;;;5021744;28;20275;-77
2021/03/15 00:40:07;;;;;;;9.50;2.70;;;5.30;96.00;;;;;;5016816;28;20086;-76
2021/03/15 00:42:33;;;;;;;2.78;1.70;;;5.30;95.90;;;;;;5049117;28;20358;-77
2021/03/15 00:44:59;;;;;;;10.82;3.08;;;5.30;95.90;;;;;;5009868;28;20086;-77
2021/03/15 00:47:24;;;;;;;5.82;1.58;;;5.30;95.90;;;;;;5007040;28;20041;-77
2021/03/15 00:49:50;;;;;;;15.10;3.60;;;5.30;96.00;;;;;;5048060;28;20543;-77
2021/03/15 00:52:15;;;;;;;9.75;2.03;;;5.30;96.10;;;;;;5033833;28;20586;-77
2021/03/15 00:54:41;;;;;;;2.35;2.00;;;5.30;96.20;;;;;;5029979;28;20048;-78
2021/03/15 00:57:06;;;;;;;6.05;1.90;;;5.30;96.00;;;;;;5008418;28;20438;-78
2021/03/15 00:59:32;;;;;;;10.07;2.90;;;5.30;96.20;;;;;;5032494;28;20041;-78
2021/03/15 01:01:57;;;;;;;8.88;3.33;;;5.30;96.10;;;;;;5007467;28;20430;-78
2021/03/15 01:04:23;;;;;;;15.35;5.47;;;5.30;96.30;;;;;;5029612;28;20034;-79
2021/03/15 01:06:48;;;;;;;6.93;2.60;;;5.30;96.20;;;;;;5007697;28;20080;-78
2021/03/15 01:09:14;;;;;;;10.48;4.70;;;5.30;96.20;;;;;;5031041;28;20025;-79
2021/03/15 01:11:40;;;;;;;13.65;5.28;;;5.30;96.10;;;;;;5044389;28;20076;-78
2021/03/15 01:14:06;;;;;;;11.13;3.33;;;5.30;96.30;;;;;;5012894;28;20037;-78
2021/03/15 01:16:31;;;;;;;4.07;2.30;;;5.30;96.30;;;;;;5033027;28;20033;-78
2021/03/15 01:18:57;;;;;;;15.48;5.55;;;5.30;96.50;;;;;;5009049;28;20037;-78
2021/03/15 01:21:23;;;;;;;6.90;3.88;;;5.30;96.40;;;;;;5030638;28;20554;-78
2021/03/15 01:23:48;;;;;;;15.65;4.72;;;5.30;96.40;;;;;;5009702;28;20033;-78
2021/03/15 01:26:14;;;;;;;5.85;2.38;;;5.30;96.20;;;;;;5016720;28;20028;-78
2021/03/15 01:28:39;;;;;;;8.30;2.75;;;5.20;96.30;;;;;;5006239;28;20078;-79
2021/03/15 01:31:05;;;;;;;2.30;1.77;;;5.20;96.30;;;;;;5023658;28;20029;-78
2021/03/15 01:33:30;;;;;;;8.85;3.60;;;5.30;96.30;;;;;;5028928;28;20009;-78
2021/03/15 01:35:56;;;;;;;5.60;3.08;;;5.30;96.20;;;;;;5033304;28;20040;-78
2021/03/15 01:38:22;;;;;;;6.82;3.10;;;5.20;96.30;;;;;;5048293;28;20032;-78
2021/03/15 01:40:47;;;;;;;4.68;2.33;;;5.20;96.20;;;;;;5009090;28;20028;-78
2021/03/15 01:43:13;;;;;;;6.80;2.95;;;5.20;96.30;;;;;;5019956;28;20029;-78
2021/03/15 01:45:38;;;;;;;9.77;3.85;;;5.20;96.40;;;;;;5023484;28;20034;-78
2021/03/15 01:48:05;;;;;;;6.38;3.60;;;5.20;96.20;;;;;;5005833;28;20037;-79
2021/03/15 01:50:31;;;;;;;7.85;3.42;;;5.20;96.40;;;;;;5046431;28;20052;-78
2021/03/15 01:52:56;;;;;;;5.93;2.55;;;5.20;96.30;;;;;;5009300;28;20437;-78
2021/03/15 01:55:23;;;;;;;12.13;3.13;;;5.10;96.40;;;;;;5013520;28;20547;-78
2021/03/15 01:57:48;;;;;;;8.07;3.45;;;5.10;96.50;;;;;;5005416;28;20098;-78
2021/03/15 02:00:15;;;;;;;12.07;4.10;;;5.20;96.30;;;;;;5020992;28;20029;-78
2021/03/15 02:02:46;;;;;;;14.35;4.57;;;5.20;96.50;;;;;;5006577;28;20037;-78
2021/03/15 02:05:12;;;;;;;4.13;2.10;;;5.20;96.40;;;;;;5027825;28;20025;-79
2021/03/15 02:07:38;;;;;;;5.47;2.97;;;5.10;96.40;;;;;;5028274;28;20444;-78
2021/03/15 02:10:04;;;;;;;7.70;3.17;;;5.10;96.30;;;;;;5006394;28;20040;-78
2021/03/15 02:13:12;;;;;;;11.35;4.50;;;5.10;96.30;;;;;;5029830;28;20040;-78
2021/03/15 02:15:43;;;;;;;5.28;3.17;;;5.10;96.60;;;;;;4931439;29;20031;-79
2021/03/15 02:18:36;;;;;;;5.32;2.50;;;5.10;96.80;;;;;;5034860;28;20040;-79
2021/03/15 02:21:21;;;;;;;6.93;3.40;;;5.10;96.70;;;;;;5028809;28;20033;-78
2021/03/15 02:23:53;;;;;;;11.13;4.57;;;5.10;96.50;;;;;;5058850;28;20040;-78
2021/03/15 02:26:51;;;;;;;7.95;3.42;;;5.10;96.60;;;;;;5009469;28;20112;-79
2021/03/15 02:29:47;;;;;;;6.72;1.90;;;5.10;96.50;;;;;;5038490;28;20075;-79
2021/03/15 02:32:26;;;;;;;7.50;4.40;;;5.10;96.50;;;;;;5065258;28;20042;-78
2021/03/15 02:34:56;;;;;;;7.32;4.13;;;5.00;96.40;;;;;;5052138;28;20122;-78
2021/03/15 02:37:25;;;;;;;7.38;3.55;;;5.10;96.50;;;;;;5035257;28;20040;-79
2021/03/15 02:39:52;;;;;;;7.25;3.85;;;5.10;96.40;;;;;;5026187;28;20037;-79
2021/03/15 02:42:18;;;;;;;5.13;3.22;;;5.00;96.20;;;;;;5052605;28;20059;-78
2021/03/15 02:44:46;;;;;;;8.00;4.50;;;5.10;96.50;;;;;;5009001;28;20396;-78
2021/03/15 02:47:12;;;;;;;10.80;4.00;;;5.00;96.50;;;;;;5021667;28;20461;-78
2021/03/15 02:49:38;;;;;;;5.63;3.38;;;5.00;96.60;;;;;;5012469;28;20041;-79
2021/03/15 02:52:04;;;;;;;12.65;5.03;;;5.00;96.40;;;;;;5035569;28;20085;-78
2021/03/15 02:54:29;;;;;;;3.00;2.22;;;5.00;96.40;;;;;;5051802;28;20032;-78
2021/03/15 02:56:55;;;;;;;11.57;4.70;;;5.00;96.50;;;;;;5012369;28;20033;-78
2021/03/15 02:59:20;;;;;;;6.53;4.95;;;5.00;96.60;;;;;;5018334;28;20033;-78
2021/03/15 03:01:46;;;;;;;13.32;6.43;;;5.10;96.40;;;;;;5010323;28;20082;-78
2021/03/15 03:04:12;;;;;;;10.80;7.07;;;5.10;96.30;;;;;;5009777;28;20112;-78
2021/03/15 03:06:39;;;;;;;11.63;7.10;;;5.00;96.50;;;;;;5051167;28;20122;-78
2021/03/15 03:09:07;;;;;;;12.38;7.85;;;4.90;96.50;;;;;;5011853;28;20048;-78
2021/03/15 03:11:32;;;;;;;8.55;5.82;;;5.00;96.40;;;;;;5054864;28;20128;-78
2021/03/15 03:13:59;;;;;;;11.05;6.47;;;5.00;96.80;;;;;;5057694;28;20497;-78
2021/03/15 03:16:27;;;;;;;9.13;5.25;;;5.00;96.50;;;;;;5020148;28;20018;-78
2021/03/15 03:18:53;;;;;;;9.55;5.70;;;5.00;96.60;;;;;;5010495;28;20029;-78
2021/03/15 03:21:22;;;;;;;3.42;2.50;;;5.00;96.40;;;;;;5034469;28;20101;-78
2021/03/15 03:23:51;;;;;;;2.90;1.90;;;5.00;96.50;;;;;;5010010;28;20021;-78
2021/03/15 03:26:19;;;;;;;8.52;4.60;;;5.00;96.60;;;;;;5034930;28;20025;-82
2021/03/15 03:28:45;;;;;;;5.80;3.42;;;4.90;96.60;;;;;;5014020;28;20520;-81
2021/03/15 03:31:10;;;;;;;10.40;6.20;;;5.00;96.70;;;;;;5019596;28;20025;-82
2021/03/15 03:33:36;;;;;;;8.88;5.90;;;5.00;96.50;;;;;;5020768;28;20029;-82
2021/03/15 03:36:02;;;;;;;9.80;5.07;;;4.90;96.40;;;;;;5053524;28;20025;-81
2021/03/15 03:38:27;;;;;;;12.85;7.28;;;4.90;96.50;;;;;;5035066;28;20498;-81
2021/03/15 03:40:53;;;;;;;8.73;4.18;;;4.90;96.50;;;;;;5010785;28;20503;-82
2021/03/15 03:43:18;;;;;;;9.32;5.05;;;5.00;96.50;;;;;;5008316;28;20392;-81
2021/03/15 03:45:44;;;;;;;12.27;6.18;;;4.90;96.60;;;;;;5049439;28;20037;-81
2021/03/15 03:48:09;;;;;;;9.00;5.25;;;4.80;96.50;;;;;;5014820;28;20036;-81
2021/03/15 03:50:35;;;;;;;13.90;5.93;;;4.80;96.80;;;;;;5035464;28;20536;-81
2021/03/15 03:53:10;;;;;;;12.98;7.25;;;4.90;96.70;;;;;;5035646;28;20111;-78
2021/03/15 03:55:46;;;;;;;10.30;5.65;;;4.90;96.50;;;;;;5029299;28;20052;-78
2021/03/15 03:58:13;;;;;;;9.07;6.32;;;4.90;96.40;;;;;;5048618;28;20039;-78
2021/03/15 04:00:38;;;;;;;11.10;7.25;;;4.90;96.40;;;;;;5048778;28;20516;-78
2021/03/15 04:03:14;;;;;;;13.40;8.15;;;4.90;96.50;;;;;;5011924;28;20037;-78
2021/03/15 04:05:40;;;;;;;;;;;4.80;96.50;;;;;;5035171;28;20436;-78
2021/03/15 04:08:08;;;;;;;14.98;8.55;;;4.80;96.40;;;;;;5051701;28;20280;-78
2021/03/15 04:10:33;;;;;;;11.73;7.30;;;4.80;96.50;;;;;;5038643;28;20044;-78
2021/03/15 04:13:06;;;;;;;13.32;7.43;;;4.80;96.40;;;;;;5008692;28;20037;-79
2021/03/15 04:15:31;;;;;;;8.27;5.75;;;4.80;96.50;;;;;;5027551;28;20503;-78
2021/03/15 04:17:57;;;;;;;15.60;8.68;;;4.90;96.30;;;;;;5010275;28;20029;-78
2021/03/15 04:20:31;;;;;;;15.02;8.57;;;4.90;96.20;;;;;;5023440;28;20040;-79
2021/03/15 04:22:57;;;;;;;14.63;9.13;;;4.90;96.50;;;;;;5025509;28;20130;-78
2021/03/15 04:25:26;;;;;;;13.48;8.43;;;4.90;96.50;;;;;;5015747;28;20393;-78
2021/03/15 04:27:52;;;;;;;14.38;8.65;;;4.90;96.40;;;;;;5025805;28;20068;-78
2021/03/15 04:30:19;;;;;;;14.45;7.78;;;4.80;96.60;;;;;;5006326;28;20408;-78
2021/03/15 04:32:47;;;;;;;13.25;9.32;;;4.80;96.50;;;;;;5007748;28;20457;-78
2021/03/15 04:35:12;;;;;;;13.35;7.40;;;4.80;96.60;;;;;;5005616;28;20044;-78
2021/03/15 04:37:38;;;;;;;16.35;9.10;;;4.80;96.60;;;;;;5006876;28;20033;-78
2021/03/15 04:40:04;;;;;;;14.10;8.45;;;4.80;96.90;;;;;;5005295;28;20370;-78
2021/03/15 04:42:30;;;;;;;18.33;10.52;;;4.80;96.70;;;;;;5033581;28;20029;-78
2021/03/15 04:44:55;;;;;;;13.90;7.90;;;4.80;96.80;;;;;;5007938;28;20529;-78
2021/03/15 04:47:21;;;;;;;19.98;9.98;;;4.80;96.90;;;;;;5032752;28;20082;-78
2021/03/15 04:49:48;;;;;;;19.15;9.85;;;4.80;97.10;;;;;;5024289;28;20489;-78
2021/03/15 04:52:14;;;;;;;18.33;8.98;;;4.80;97.00;;;;;;5009797;28;20037;-78
2021/03/15 04:54:39;;;;;;;14.00;9.75;;;4.80;96.90;;;;;;5009303;28;20044;-78
2021/03/15 04:57:05;;;;;;;15.68;9.10;;;4.80;97.10;;;;;;5032447;28;20039;-78
2021/03/15 04:59:31;;;;;;;13.52;8.15;;;4.80;97.20;;;;;;5045715;28;20401;-78
2021/03/15 05:01:56;;;;;;;12.65;8.15;;;4.80;97.10;;;;;;5009866;28;20032;-78
2021/03/15 05:04:22;;;;;;;12.80;7.35;;;4.80;96.90;;;;;;5008401;28;20040;-78
2021/03/15 05:06:48;;;;;;;13.23;8.50;;;4.80;97.10;;;;;;5033350;28;20425;-78
2021/03/15 05:09:13;;;;;;;14.02;9.77;;;4.70;97.60;;;;;;5017132;28;20079;-78
2021/03/15 05:11:39;;;;;;;15.30;9.40;;;4.60;97.90;;;;;;5007233;28;20041;-78
2021/03/15 05:14:05;;;;;;;13.63;8.65;;;4.60;98.00;;;;;;5016375;28;20057;-78
2021/03/15 05:16:37;;;;;;;16.92;9.73;;;4.60;97.80;;;;;;5030650;28;20033;-78
2021/03/15 05:19:04;;;;;;;12.98;8.48;;;4.60;97.80;;;;;;5023289;28;20048;-78
2021/03/15 05:21:31;;;;;;;13.32;7.60;;;4.60;97.70;;;;;;5034574;28;20094;-78
2021/03/15 05:23:57;;;;;;;14.38;8.25;;;4.60;97.60;;;;;;5023155;28;20554;-78
2021/03/15 05:26:22;;;;;;;10.75;6.85;;;4.60;97.60;;;;;;5025517;28;20116;-77
2021/03/15 05:28:48;;;;;;;11.55;7.55;;;4.60;97.40;;;;;;5006725;28;20040;-78
2021/03/15 05:31:13;;;;;;;11.57;6.22;;;4.60;97.20;;;;;;5023255;28;20037;-78
2021/03/15 05:33:40;;;;;;;10.77;6.47;;;4.60;97.40;;;;;;5009151;28;20057;-78
2021/03/15 05:36:14;;;;;;;8.27;6.30;;;4.60;97.20;;;;;;5023363;28;20044;-78
2021/03/15 05:39:08;;;;;;;8.77;5.80;;;4.60;97.10;;;;;;5035066;28;20613;-77
2021/03/15 05:41:59;;;;;;;13.57;7.25;;;4.60;97.40;;;;;;4949581;28;20021;-78
2021/03/15 05:44:43;;;;;;;9.27;5.63;;;4.60;97.20;;;;;;5043347;28;20025;-78
2021/03/15 05:47:24;;;;;;;7.15;5.25;;;4.60;97.20;;;;;;5061584;28;20089;-78
2021/03/15 05:50:01;;;;;;;8.38;5.20;;;4.60;97.10;;;;;;5049807;28;20036;-78
2021/03/15 05:53:00;;;;;;;8.77;5.10;;;4.50;97.20;;;;;;5020861;28;20508;-78
2021/03/15 05:56:00;;;;;;;11.70;5.15;;;4.50;97.00;;;;;;5058531;28;20104;-78
2021/03/15 05:58:31;;;;;;;13.30;5.20;;;4.60;97.00;;;;;;4999228;28;20034;-78
2021/03/15 06:00:57;;;;;;;10.70;5.25;;;4.60;97.20;;;;;;5025139;28;20061;-78
2021/03/15 06:04:03;;;;;;;9.35;4.93;;;4.50;97.40;;;;;;5044356;28;20119;-78
2021/03/15 06:06:37;;;;;;;6.93;4.35;;;4.60;97.10;;;;;;4990704;28;20044;-78
2021/03/15 06:09:05;;;;;;;11.97;6.87;;;4.60;97.00;;;;;;5023735;28;20091;-79
2021/03/15 06:11:43;;;;;;;12.88;6.00;;;4.60;97.30;;;;;;5039415;28;20492;-78
2021/03/15 06:14:09;;;;;;;7.63;5.05;;;4.60;97.60;;;;;;5005734;28;20056;-78
2021/03/15 06:16:35;;;;;;;12.13;6.80;;;4.60;97.20;;;;;;5016552;28;20059;-78
2021/03/15 06:19:00;;;;;;;9.77;6.07;;;4.70;97.30;;;;;;5032363;28;20354;-79
2021/03/15 06:21:26;;;;;;;13.10;7.93;;;4.70;97.30;;;;;;5011786;28;20037;-79
2021/03/15 06:23:52;;;;;;;11.82;7.07;;;4.70;97.40;;;;;;5010054;28;20044;-79
2021/03/15 06:26:17;;;;;;;14.70;8.23;;;4.70;97.20;;;;;;5018898;28;20477;-78
2021/03/15 06:28:43;;;;;;;15.30;8.65;;;4.60;97.60;;;;;;5046709;28;20048;-78
2021/03/15 06:31:09;;;;;;;16.10;10.18;;;4.70;98.00;;;;;;5040405;28;20135;-79
2021/03/15 06:33:34;;;;;;;18.83;10.90;;;4.80;98.20;;;;;;5014542;28;20480;-79
2021/03/15 06:36:01;;;;;;;15.95;9.48;;;4.70;98.30;;;;;;5014927;28;20075;-78
2021/03/15 06:38:27;;;;;;;17.15;8.25;;;4.80;98.10;;;;;;5012727;28;20033;-78
2021/03/15 06:40:52;;;;;;;16.80;10.18;;;4.80;98.00;;;;;;5011425;28;20035;-78
2021/03/15 06:43:19;;;;;;;21.17;11.77;;;4.90;97.70;;;;;;5012610;28;20467;-79
2021/03/15 06:45:52;;;;;;;18.75;9.25;;;4.90;98.20;;;;;;5023093;28;20035;-79
2021/03/15 06:48:21;;;;;;;18.15;9.95;;;4.90;98.00;;;;;;5004144;28;20686;-78
2021/03/15 06:50:47;;;;;;;14.60;8.75;;;4.90;97.90;;;;;;5030513;28;20026;-79
2021/03/15 06:53:13;;;;;;;15.98;7.80;;;5.00;97.80;;;;;;5024063;28;20041;-79
2021/03/15 06:55:41;;;;;;;16.95;8.55;;;5.00;97.90;;;;;;5023779;28;20275;-78
2021/03/15 06:58:19;;;;;;;20.85;8.90;;;5.10;97.80;;;;;;5046801;28;20040;-79
2021/03/15 07:01:06;;;;;;;11.35;7.05;;;5.10;98.00;;;;;;5060705;28;20466;-78
2021/03/15 07:03:32;;;;;;;10.63;7.07;;;5.10;98.10;;;;;;5020344;28;20281;-79
2021/03/15 07:05:58;;;;;;;14.50;7.10;;;5.20;97.40;;;;;;5046699;28;20025;-79
2021/03/15 07:08:24;;;;;;;16.17;8.63;;;5.20;97.70;;;;;;5017340;28;20107;-79
2021/03/15 07:10:50;;;;;;;18.35;8.02;;;5.30;97.60;;;;;;5006857;28;20039;-79
2021/03/15 07:13:21;;;;;;;10.32;6.10;;;5.30;98.10;;;;;;5034029;28;20550;-78
2021/03/15 07:15:51;;;;;;;17.52;7.30;;;5.40;97.50;;;;;;5005493;28;20049;-78
2021/03/15 07:18:17;;;;;;;13.35;7.05;;;5.40;97.90;;;;;;5032293;28;20041;-78
2021/03/15 07:20:47;;;;;;;11.07;7.00;;;5.30;97.70;;;;;;5036841;28;20112;-78
2021/03/15 07:23:13;;;;;;;13.23;7.30;;;5.30;97.50;;;;;;5040950;28;20487;-78
2021/03/15 07:25:39;;;;;;;16.23;6.97;;;5.40;97.60;;;;;;5048828;28;20036;-78
2021/03/15 07:28:04;;;;;;;14.23;7.05;;;5.30;97.80;;;;;;5025634;28;20026;-78
2021/03/15 07:30:40;;;;;;;10.63;6.28;;;5.40;98.00;;;;;;5030780;28;20128;-78
2021/03/15 07:33:17;;;;;;;12.98;7.70;;;5.50;97.50;;;;;;5002011;28;20045;-78
2021/03/15 07:35:42;;;;;;;11.10;5.93;;;5.50;98.20;;;;;;5027531;28;20037;-78
2021/03/15 07:38:08;;;;;;;9.18;5.22;;;5.50;97.70;;;;;;5010308;28;20511;-77
2021/03/15 07:40:37;;;;;;;9.10;5.80;;;5.60;97.40;;;;;;5014739;28;20440;-78
2021/03/15 07:43:08;;;;;;;7.28;4.70;;;5.60;98.20;;;;;;5029129;28;20040;-77
2021/03/15 07:45:35;;;;;;;9.15;4.90;;;5.70;97.70;;;;;;5007445;28;20384;-78
2021/03/15 07:48:19;;;;;;;9.48;4.82;;;5.70;97.50;;;;;;5021882;28;20029;-77
2021/03/15 07:51:04;;;;;;;9.68;4.45;;;5.90;97.70;;;;;;5022634;28;20116;-78
2021/03/15 07:53:43;;;;;;;10.40;4.78;;;5.90;97.40;;;;;;5036263;28;20460;-78
2021/03/15 07:56:19;;;;;;;12.00;5.57;;;6.00;97.90;;;;;;5034217;28;20056;-77
2021/03/15 07:58:45;;;;;;;12.65;5.68;;;6.20;98.30;;;;;;5056759;28;20036;-77
2021/03/15 08:01:12;;;;;;;9.93;5.13;;;6.20;98.00;;;;;;5006492;28;20374;-77
2021/03/15 08:03:38;;;;;;;10.10;5.28;;;6.30;97.80;;;;;;5047647;28;20051;-77
2021/03/15 08:06:04;;;;;;;16.67;7.47;;;6.40;97.40;;;;;;5017180;28;20286;-78
2021/03/15 08:08:29;;;;;;;10.13;7.25;;;6.40;98.30;;;;;;5030189;28;20393;-77
2021/03/15 08:10:56;;;;;;;13.43;6.38;;;6.50;98.50;;;;;;5045884;28;20032;-77
2021/03/15 08:13:26;;;;;;;12.10;6.43;;;6.50;98.00;;;;;;5020701;28;20158;-77
2021/03/15 08:15:52;;;;;;;11.95;5.07;;;6.60;98.30;;;;;;5007002;28;20515;-77
2021/03/15 08:18:20;;;;;;;11.93;5.82;;;6.70;97.70;;;;;;5017632;28;20033;-77
2021/03/15 08:20:47;;;;;;;12.43;5.72;;;6.70;98.10;;;;;;5022015;28;20426;-77
2021/03/15 08:23:13;;;;;;;14.57;6.57;;;6.70;98.60;;;;;;5030922;28;20033;-77
2021/03/15 08:25:43;;;;;;;8.88;4.70;;;6.70;98.30;;;;;;5032942;28;20508;-77
2021/03/15 08:28:10;;;;;;;11.48;6.18;;;6.60;98.50;;;;;;5025685;28;20528;-77
2021/03/15 08:30:36;;;;;;;12.48;5.68;;;6.60;98.50;;;;;;5022741;28;20032;-77
2021/03/15 08:33:02;;;;;;;11.85;5.38;;;6.60;98.10;;;;;;5019347;28;20040;-77
2021/03/15 08:35:27;;;;;;;17.10;6.15;;;6.60;97.70;;;;;;5032455;28;20032;-77
2021/03/15 08:37:54;;;;;;;11.55;4.95;;;6.60;98.20;;;;;;5018535;28;20030;-77
2021/03/15 08:40:41;;;;;;;14.40;4.85;;;6.60;98.20;;;;;;5049312;28;20112;-78
2021/03/15 08:43:19;;;;;;;11.88;4.07;;;6.60;98.10;;;;;;5039296;28;20033;-78
2021/03/15 08:45:51;;;;;;;11.60;4.22;;;6.70;98.20;;;;;;5065694;28;20632;-78
2021/03/15 08:48:17;;;;;;;17.98;5.53;;;6.90;97.80;;;;;;5029274;28;20484;-78
2021/03/15 08:50:50;;;;;;;12.15;4.53;;;7.00;98.30;;;;;;5021302;28;20159;-78
2021/03/15 08:53:37;;;;;;;12.57;4.53;;;7.10;97.80;;;;;;5034071;28;20057;-78
2021/03/15 08:56:03;;;;;;;11.32;5.03;;;7.20;97.60;;;;;;5054084;28;20497;-78
2021/03/15 08:58:34;;;;;;;8.73;4.10;;;7.30;98.00;;;;;;5044290;28;20465;-78
2021/03/15 09:01:00;;;;;;;11.05;3.83;;;7.30;97.50;;;;;;5052756;28;20500;-78
2021/03/15 09:03:51;;;;;;;8.70;3.83;;;7.40;98.50;;;;;;5028996;28;20040;-78
2021/03/15 09:06:37;;;;;;;8.68;4.45;;;7.40;98.40;;;;;;5029762;28;20037;-78
2021/03/15 09:09:08;;;;;;;15.95;4.55;;;7.50;98.60;;;;;;5032828;28;20071;-78
2021/03/15 09:11:34;;;;;;;14.30;3.65;;;7.50;97.90;;;;;;5048797;28;20060;-78
2021/03/15 09:14:20;;;;;;;9.70;3.65;;;7.50;97.50;;;;;;5050670;28;20033;-77
2021/03/15 09:16:49;;;;;;;12.03;4.20;;;7.60;97.70;;;;;;5037067;28;20163;-77
2021/03/15 09:19:34;;;;;;;10.50;4.50;;;7.70;98.00;;;;;;5048545;28;20085;-77
2021/03/15 09:22:27;;;;;;;14.77;4.40;;;7.90;98.60;;;;;;5042182;28;20033;-77
2021/03/15 09:25:20;;;;;;;12.57;4.53;;;7.80;98.20;;;;;;5037251;28;20031;-78
2021/03/15 09:27:50;;;;;;;12.35;4.70;;;7.70;97.60;;;;;;5039125;28;20033;-77
2021/03/15 09:30:26;;;;;;;17.23;5.40;;;7.60;98.10;;;;;;4999687;28;20049;-77
2021/03/15 09:32:53;;;;;;;13.50;4.13;;;7.70;98.00;;;;;;5005548;28;20032;-77
2021/03/15 09:35:24;;;;;;;13.30;4.20;;;7.60;98.20;;;;;;5004843;28;20381;-78
2021/03/15 09:37:55;;;;;;;15.57;3.38;;;7.70;98.60;;;;;;5023017;28;20448;-78
2021/03/15 09:40:28;;;;;;;11.93;4.72;;;7.70;97.90;;;;;;5020911;28;20068;-77
2021/03/15 09:42:59;;;;;;;13.90;3.88;;;7.70;97.70;;;;;;5006554;28;20452;-79
2021/03/15 09:45:29;;;;;;;12.45;3.55;;;7.80;98.20;;;;;;5020543;28;20112;-77
2021/03/15 09:47:55;;;;;;;15.10;3.17;;;7.80;98.40;;;;;;5039241;28;20056;-77
2021/03/15 09:50:28;;;;;;;12.55;3.55;;;7.90;98.30;;;;;;5027980;28;20369;-78
2021/03/15 09:53:11;;;;;;;10.85;2.78;;;8.00;98.60;;;;;;5020962;28;20378;-78
2021/03/15 09:55:37;;;;;;;16.15;3.70;;;8.00;98.10;;;;;;5023592;28;20036;-77
2021/03/15 09:58:06;;;;;;;11.88;1.67;;;8.20;97.60;;;;;;5038407;28;20033;-77
2021/03/15 10:00:32;;;;;;;8.52;2.30;;;8.20;97.40;;;;;;5033511;28;20051;-77
2021/03/15 10:02:57;;;;;;;5.45;1.75;;;8.20;96.60;;;;;;5006480;28;20025;-78
2021/03/15 10:05:23;;;;;;;8.48;1.75;;;8.30;97.70;;;;;;5004616;28;20421;-77
2021/03/15 10:07:49;;;;;;;9.25;1.85;;;8.40;97.80;;;;;;5004094;28;20033;-78
2021/03/15 10:10:16;;;;;;;6.22;1.55;;;8.40;98.00;;;;;;5017941;28;20068;-78
2021/03/15 10:12:42;;;;;;;5.28;1.45;;;8.50;96.90;;;;;;5045330;28;20496;-77
2021/03/15 10:15:09;;;;;;;10.73;1.38;;;8.50;96.70;;;;;;5018143;28;20112;-77
2021/03/15 10:17:35;;;;;;;14.93;1.98;;;8.60;96.70;;;;;;5026494;28;20033;-77
2021/03/15 10:20:01;;;;;;;10.77;1.92;;;8.70;97.60;;;;;;5020771;28;20044;-77
2021/03/15 10:22:26;;;;;;;6.70;1.45;;;8.70;97.20;;;;;;5033558;28;20034;-77
2021/03/15 10:24:52;;;;;;;5.95;1.40;;;8.90;97.20;;;;;;5021767;28;20032;-77
2021/03/15 10:27:25;;;;;;;8.18;1.33;;;9.00;96.00;;;;;;5041583;28;20402;-77
2021/03/15 10:29:58;;;;;;;6.22;0.95;;;9.20;97.50;;;;;;5006588;28;20032;-77
2021/03/15 10:32:25;;;;;;;8.77;1.33;;;9.30;97.50;;;;;;5034110;28;20038;-77
2021/03/15 10:34:52;;;;;;;9.32;1.73;;;9.40;96.40;;;;;;5050502;28;20480;-77
2021/03/15 10:37:19;;;;;;;6.18;1.45;;;9.60;98.00;;;;;;5032740;28;20036;-77
2021/03/15 10:39:45;;;;;;;9.80;2.10;;;9.70;96.40;;;;;;5023593;28;20076;-77
2021/03/15 10:42:10;;;;;;;8.05;1.80;;;9.90;97.80;;;;;;5020595;28;20017;-77
2021/03/15 10:44:36;;;;;;;9.27;1.70;;;9.90;97.90;;;;;;5033665;28;20120;-77
2021/03/15 10:47:01;;;;;;;5.88;1.20;;;9.90;97.10;;;;;;5033080;28;20025;-77
2021/03/15 10:49:27;;;;;;;6.72;1.48;;;9.90;96.30;;;;;;5029934;28;20109;-78
2021/03/15 10:51:53;;;;;;;3.60;1.10;;;9.90;97.20;;;;;;5028822;28;20036;-77
2021/03/15 10:54:38;;;;;;;7.40;1.27;;;10.00;96.00;;;;;;5006769;28;20098;-77
2021/03/15 10:57:19;;;;;;;7.03;1.50;;;9.90;95.80;;;;;;5053284;28;20026;-78
2021/03/15 10:59:46;;;;;;;7.40;0.90;;;10.00;96.20;;;;;;5032700;28;20033;-77
2021/03/15 11:02:22;;;;;;;5.70;1.23;;;10.00;95.60;;;;;;5022905;28;20033;-78
2021/03/15 11:04:55;;;;;;;;;;;10.00;95.70;;;;;;5020329;28;20064;-78
2021/03/15 11:07:29;;;;;;;4.28;1.00;;;10.10;96.50;;;;;;5040064;28;20318;-77
2021/03/15 11:10:13;;;;;;;5.57;0.90;;;10.20;95.30;;;;;;5025191;28;20028;-77
2021/03/15 11:12:41;;;;;;;3.95;1.55;;;10.20;95.40;;;;;;5027184;28;20040;-77
2021/03/15 11:15:11;;;;;;;7.47;2.10;;;10.30;96.10;;;;;;5010427;28;20078;-77
2021/03/15 11:17:37;;;;;;;8.25;0.95;;;10.30;95.60;;;;;;5070676;28;20041;-77
2021/03/15 11:20:04;;;;;;;5.35;1.00;;;10.30;93.70;;;;;;5039940;28;20087;-77
2021/03/15 11:22:47;;;;;;;6.17;1.40;;;10.20;95.50;;;;;;4321648;28;10021499;-78
2021/03/15 11:25:13;;;;;;;1.98;0.60;;;10.30;95.00;;;;;;5034021;28;20374;-77
2021/03/15 11:27:38;;;;;;;4.15;0.90;;;10.30;94.90;;;;;;5013862;28;20208;-77
2021/03/15 11:30:05;;;;;;;11.43;1.20;;;10.20;95.20;;;;;;5010699;28;20032;-78
2021/03/15 11:32:30;;;;;;;5.80;0.95;;;10.30;94.70;;;;;;5055350;28;20630;-77
2021/03/15 11:34:56;;;;;;;6.38;1.52;;;10.20;94.20;;;;;;5057549;28;20025;-77
2021/03/15 11:37:25;;;;;;;5.13;1.48;;;10.30;94.90;;;;;;5039257;28;20500;-77
2021/03/15 11:39:51;;;;;;;8.00;1.52;;;10.20;94.40;;;;;;5057046;28;20032;-77
2021/03/15 11:42:26;;;;;;;9.65;2.22;;;10.00;94.80;;;;;;5021722;28;20032;-77
2021/03/15 11:44:52;;;;;;;8.57;1.38;;;9.90;94.60;;;;;;5038000;28;20028;-77
2021/03/15 11:47:17;;;;;;;6.10;1.60;;;9.90;95.20;;;;;;5038119;28;20736;-78
2021/03/15 11:49:43;;;;;;;3.90;0.98;;;9.90;96.00;;;;;;5002519;28;20491;-77
2021/03/15 11:52:08;;;;;;;9.85;1.65;;;9.80;95.30;;;;;;5013543;28;20040;-78
2021/03/15 11:54:37;;;;;;;12.00;1.50;;;9.80;95.80;;;;;;5035536;28;20563;-79
2021/03/15 11:57:03;;;;;;;4.90;1.02;;;9.70;95.70;;;;;;5029748;28;20033;-78
2021/03/15 11:59:28;;;;;;;7.82;1.50;;;9.60;95.40;;;;;;5068170;28;20036;-78
2021/03/15 12:01:54;;;;;;;8.57;1.52;;;9.60;95.20;;;;;;5034390;28;20025;-78
2021/03/15 12:04:19;;;;;;;13.68;1.23;;;9.50;95.00;;;;;;5004133;28;20037;-78
2021/03/15 12:06:45;;;;;;;4.35;0.90;;;9.50;94.80;;;;;;5025677;28;20086;-78
2021/03/15 12:09:11;;;;;;;6.03;1.02;;;9.60;94.90;;;;;;5039192;28;20181;-78
2021/03/15 12:11:36;;;;;;;3.30;0.60;;;9.60;95.30;;;;;;5039889;28;20032;-78
2021/03/15 12:14:02;;;;;;;3.20;0.65;;;9.70;95.00;;;;;;5055432;28;20028;-79
2021/03/15 12:16:27;;;;;;;6.07;2.65;;;9.90;95.40;;;;;;5021203;28;20355;-79
2021/03/15 12:18:56;;;;;;;5.55;1.20;;;9.80;95.30;;;;;;5039311;28;20028;-78
2021/03/15 12:21:22;;;;;;;15.07;2.45;;;9.80;95.40;;;;;;5009603;28;20156;-78
2021/03/15 12:23:47;;;;;;;8.20;1.50;;;9.20;96.30;;;;;;5021572;28;20135;-78
2021/03/15 12:26:13;;;;;;;5.88;1.85;;;8.80;96.20;;;;;;5040231;28;20098;-78
2021/03/15 12:28:38;;;;;;;4.68;1.73;;;8.70;95.80;;;;;;5025376;28;20713;-78
2021/03/15 12:31:04;;;;;;;9.35;1.85;;;8.50;95.90;;;;;;5011228;28;20485;-79
2021/03/15 12:33:29;;;;;;;2.60;1.20;;;8.50;95.80;;;;;;5050338;28;20127;-78
2021/03/15 12:35:55;;;;;;;5.35;1.33;;;8.60;96.10;;;;;;5037688;28;20028;-78
2021/03/15 12:38:21;;;;;;;9.00;1.77;;;8.70;96.00;;;;;;5036813;28;20135;-78
2021/03/15 12:40:46;;;;;;;10.15;1.80;;;8.80;96.00;;;;;;5019284;28;20103;-78
2021/03/15 12:43:12;;;;;;;3.72;1.38;;;8.80;96.60;;;;;;5034063;28;20404;-78
2021/03/15 12:45:37;;;;;;;6.88;1.70;;;9.00;96.20;;;;;;5010102;28;20472;-79
2021/03/15 12:48:03;;;;;;;11.07;2.30;;;9.00;96.80;;;;;;5029949;28;20507;-79
2021/03/15 12:50:29;;;;;;;5.05;1.10;;;9.30;97.00;;;;;;5038487;28;20541;-78
2021/03/15 12:52:54;;;;;;;5.85;1.85;;;9.40;96.10;;;;;;5023710;28;20036;-79
2021/03/15 12:55:20;;;;;;;4.35;0.75;;;9.50;96.10;;;;;;5037407;28;20080;-79
2021/03/15 12:57:46;;;;;;;2.72;0.90;;;9.20;96.60;;;;;;5025521;28;20032;-79
2021/03/15 13:00:13;;;;;;;5.15;0.90;;;9.30;95.90;;;;;;5013432;28;20025;-78